createdAt,value
2018-12-21T00:00:26.103Z,4.10
2018-12-21T00:02:54.458Z,4.10
2018-12-21T00:05:22.831Z,4.20
2018-12-21T00:07:51.178Z,4.20
2018-12-21T00:10:19.575Z,4.20
2018-12-21T00:12:47.919Z,4.20
2018-12-21T00:15:16.295Z,4.20
2018-12-21T00:17:44.724Z,4.30
2018-12-21T00:20:13.211Z,4.30
2018-12-21T00:22:41.546Z,4.30
2018-12-21T00:25:09.914Z,4.30
2018-12-21T00:27:38.367Z,4.30
2018-12-21T00:30:09.681Z,4.20
2018-12-21T00:32:43.275Z,4.20
2018-12-21T00:35:17.234Z,4.20
2018-12-21T00:37:50.895Z,4.20
2018-12-21T00:40:24.763Z,4.20
2018-12-21T00:42:57.331Z,4.20
2018-12-21T00:45:29.915Z,4.20
2018-12-21T00:47:58.367Z,4.20
2018-12-21T00:50:26.930Z,4.20
2018-12-21T00:52:55.284Z,4.30
2018-12-21T00:55:23.742Z,4.30
2018-12-21T00:57:52.195Z,4.40
2018-12-21T01:00:24.136Z,4.40
2018-12-21T01:02:52.806Z,4.40
2018-12-21T01:05:21.209Z,4.40
2018-12-21T01:07:49.534Z,4.50
2018-12-21T01:10:18.022Z,4.50
2018-12-21T01:12:46.366Z,4.60
2018-12-21T01:15:14.841Z,4.60
2018-12-21T01:17:43.185Z,4.60
2018-12-21T01:20:11.701Z,4.60
2018-12-21T01:22:40.049Z,4.60
2018-12-21T01:25:08.431Z,4.60
2018-12-21T01:27:36.761Z,4.60
2018-12-21T01:30:05.546Z,4.60
2018-12-21T01:32:33.895Z,4.60
2018-12-21T01:35:02.348Z,4.60
2018-12-21T01:37:30.695Z,4.60
2018-12-21T01:39:59.074Z,4.60
2018-12-21T01:42:27.513Z,4.60
2018-12-21T01:44:55.898Z,4.60
2018-12-21T01:47:24.265Z,4.70
2018-12-21T01:49:52.642Z,4.70
2018-12-21T01:52:20.991Z,4.70
2018-12-21T01:54:49.357Z,4.70
2018-12-21T01:57:17.718Z,4.70
2018-12-21T01:59:46.168Z,4.60
2018-12-21T02:02:14.521Z,4.60
2018-12-21T02:04:42.902Z,4.60
2018-12-21T02:07:11.390Z,4.60
2018-12-21T02:09:39.787Z,4.60
2018-12-21T02:12:08.122Z,4.60
2018-12-21T02:14:36.494Z,4.60
2018-12-21T02:17:04.836Z,4.60
2018-12-21T02:19:33.245Z,4.60
2018-12-21T02:22:01.662Z,4.50
2018-12-21T02:24:30.026Z,4.50
2018-12-21T02:26:58.515Z,4.50
2018-12-21T02:29:27.046Z,4.50
2018-12-21T02:31:55.387Z,4.60
2018-12-21T02:34:23.766Z,4.50
2018-12-21T02:36:52.139Z,4.60
2018-12-21T02:39:20.714Z,4.60
2018-12-21T02:41:49.078Z,4.60
2018-12-21T02:44:17.427Z,4.70
2018-12-21T02:46:45.836Z,4.70
2018-12-21T02:49:14.188Z,4.70
2018-12-21T02:51:42.562Z,4.70
2018-12-21T02:54:10.910Z,4.70
2018-12-21T02:56:39.321Z,4.70
2018-12-21T02:59:07.673Z,4.70
2018-12-21T03:01:36.061Z,4.70
2018-12-21T03:04:04.418Z,4.70
2018-12-21T03:06:32.791Z,4.80
2018-12-21T03:09:01.125Z,4.80
2018-12-21T03:11:29.496Z,4.80
2018-12-21T03:13:57.899Z,4.80
2018-12-21T03:16:26.261Z,4.80
2018-12-21T03:18:54.704Z,4.80
2018-12-21T03:21:23.071Z,4.80
2018-12-21T03:23:51.407Z,4.80
2018-12-21T03:26:19.773Z,4.80
2018-12-21T03:28:48.118Z,4.80
2018-12-21T03:31:23.012Z,4.80
2018-12-21T03:33:51.448Z,4.80
2018-12-21T03:36:19.820Z,4.80
2018-12-21T03:38:48.186Z,4.80
2018-12-21T03:41:16.572Z,4.80
2018-12-21T03:43:44.899Z,4.80
2018-12-21T03:46:13.303Z,4.80
2018-12-21T03:48:41.751Z,4.80
2018-12-21T03:51:10.120Z,4.80
2018-12-21T03:53:38.468Z,4.90
2018-12-21T03:56:06.843Z,4.80
2018-12-21T03:58:35.383Z,4.90
2018-12-21T04:01:03.859Z,4.90
2018-12-21T04:03:32.199Z,4.90
2018-12-21T04:06:00.581Z,4.90
2018-12-21T04:08:28.924Z,4.90
2018-12-21T04:10:57.300Z,4.90
2018-12-21T04:13:25.672Z,4.90
2018-12-21T04:15:54.036Z,4.90
2018-12-21T04:18:22.383Z,4.90
2018-12-21T04:20:50.864Z,4.90
2018-12-21T04:23:25.648Z,4.90
2018-12-21T04:25:54.024Z,4.90
2018-12-21T04:28:22.355Z,4.90
2018-12-21T04:30:50.726Z,4.90
2018-12-21T04:33:19.100Z,4.90
2018-12-21T04:35:47.471Z,4.90
2018-12-21T04:38:15.803Z,4.90
2018-12-21T04:40:44.185Z,4.90
2018-12-21T04:43:12.525Z,4.80
2018-12-21T04:45:40.895Z,4.80
2018-12-21T04:48:09.242Z,4.90
2018-12-21T04:50:37.604Z,4.90
2018-12-21T04:53:05.949Z,4.90
2018-12-21T04:55:34.414Z,4.90
2018-12-21T04:58:02.746Z,4.90
2018-12-21T05:00:31.227Z,4.90
2018-12-21T05:02:59.574Z,5.00
2018-12-21T05:05:27.935Z,5.00
2018-12-21T05:07:56.282Z,5.00
2018-12-21T05:10:24.653Z,5.00
2018-12-21T05:12:52.996Z,5.00
2018-12-21T05:15:21.381Z,5.00
2018-12-21T05:17:49.724Z,5.00
2018-12-21T05:20:18.117Z,5.00
2018-12-21T05:22:52.167Z,5.00
2018-12-21T05:25:16.882Z,5.00
2018-12-21T05:27:45.221Z,5.10
2018-12-21T05:30:13.710Z,5.00
2018-12-21T05:32:42.080Z,5.10
2018-12-21T05:35:10.414Z,5.10
2018-12-21T05:37:39.802Z,5.20
2018-12-21T05:40:08.279Z,5.20
2018-12-21T05:42:36.655Z,5.30
2018-12-21T05:45:06.039Z,5.30
2018-12-21T05:47:34.415Z,5.30
2018-12-21T05:50:03.014Z,5.30
2018-12-21T05:52:31.383Z,5.40
2018-12-21T05:54:59.724Z,5.40
2018-12-21T05:57:28.102Z,5.50
2018-12-21T05:59:56.445Z,5.50
2018-12-21T06:02:24.827Z,5.50
2018-12-21T06:04:53.159Z,5.50
2018-12-21T06:07:21.526Z,5.60
2018-12-21T06:09:49.862Z,5.70
2018-12-21T06:12:18.226Z,5.70
2018-12-21T06:14:46.625Z,5.70
2018-12-21T06:17:14.986Z,5.70
2018-12-21T06:19:43.358Z,5.80
2018-12-21T06:22:11.834Z,5.80
2018-12-21T06:24:40.170Z,5.80
2018-12-21T06:27:08.537Z,5.80
2018-12-21T06:29:36.877Z,5.70
2018-12-21T06:32:05.250Z,5.70
2018-12-21T06:34:33.589Z,5.70
2018-12-21T06:37:01.968Z,5.70
2018-12-21T06:39:30.342Z,5.70
2018-12-21T06:41:58.715Z,5.70
2018-12-21T06:44:27.041Z,5.70
2018-12-21T06:46:55.410Z,5.70
2018-12-21T06:49:23.749Z,5.70
2018-12-21T06:51:52.125Z,5.70
2018-12-21T06:54:20.453Z,5.60
2018-12-21T06:56:48.817Z,5.60
2018-12-21T06:59:17.223Z,5.60
2018-12-21T07:01:45.586Z,5.50
2018-12-21T07:04:13.929Z,5.50
2018-12-21T07:06:42.385Z,5.50
2018-12-21T07:09:10.878Z,5.40
2018-12-21T07:11:39.245Z,5.40
2018-12-21T07:14:07.565Z,5.40
2018-12-21T07:16:35.938Z,5.30
2018-12-21T07:19:04.386Z,5.30
2018-12-21T07:21:32.776Z,5.30
2018-12-21T07:24:01.105Z,5.30
2018-12-21T07:26:36.094Z,5.20
2018-12-21T07:29:04.590Z,5.20
2018-12-21T07:31:32.964Z,5.20
2018-12-21T07:34:01.298Z,5.20
2018-12-21T07:36:29.682Z,5.20
2018-12-21T07:38:58.041Z,5.20
2018-12-21T07:41:26.416Z,5.20
2018-12-21T07:43:54.762Z,5.20
2018-12-21T07:46:23.126Z,5.20
2018-12-21T07:48:51.461Z,5.20
2018-12-21T07:51:19.819Z,5.30
2018-12-21T07:53:48.158Z,5.20
2018-12-21T07:56:16.518Z,5.20
2018-12-21T07:58:44.857Z,5.20
2018-12-21T08:01:13.241Z,5.20
2018-12-21T08:03:41.588Z,5.20
2018-12-21T08:06:09.958Z,5.10
2018-12-21T08:08:38.328Z,5.20
2018-12-21T08:11:06.686Z,5.20
2018-12-21T08:13:35.042Z,5.20
2018-12-21T08:16:03.410Z,5.20
2018-12-21T08:18:31.742Z,5.20
2018-12-21T08:21:00.147Z,5.20
2018-12-21T08:23:28.627Z,5.20
2018-12-21T08:25:56.990Z,5.20
2018-12-21T08:28:25.357Z,5.20
2018-12-21T08:30:53.690Z,5.20
2018-12-21T08:33:22.094Z,5.20
2018-12-21T08:35:50.444Z,5.20
2018-12-21T08:38:18.814Z,5.20
2018-12-21T08:40:47.147Z,5.20
2018-12-21T08:43:15.510Z,5.20
2018-12-21T08:45:43.847Z,5.20
2018-12-21T08:48:12.218Z,5.30
2018-12-21T08:50:40.563Z,5.20
2018-12-21T08:53:09.008Z,5.20
2018-12-21T08:55:37.390Z,5.20
2018-12-21T08:58:05.759Z,5.20
2018-12-21T09:00:34.090Z,5.20
2018-12-21T09:03:02.451Z,5.20
2018-12-21T09:05:30.781Z,5.20
2018-12-21T09:07:59.154Z,5.20
2018-12-21T09:10:27.497Z,5.20
2018-12-21T09:12:55.874Z,5.20
2018-12-21T09:15:24.431Z,5.20
2018-12-21T09:17:52.802Z,5.20
2018-12-21T09:20:21.138Z,5.20
2018-12-21T09:22:49.506Z,5.20
2018-12-21T09:25:17.827Z,5.30
2018-12-21T09:27:46.205Z,5.30
2018-12-21T09:30:14.809Z,5.30
2018-12-21T09:32:43.328Z,5.40
2018-12-21T09:35:11.748Z,5.40
2018-12-21T09:37:40.141Z,5.40
2018-12-21T09:40:10.943Z,5.40
2018-12-21T09:42:39.310Z,5.50
2018-12-21T09:45:07.866Z,5.50
2018-12-21T09:47:36.279Z,5.50
2018-12-21T09:50:05.480Z,5.50
2018-12-21T09:52:33.851Z,5.60
2018-12-21T09:55:02.186Z,5.60
2018-12-21T09:57:30.676Z,5.60
2018-12-21T09:59:59.118Z,5.70
2018-12-21T10:02:35.562Z,5.70
2018-12-21T10:04:57.851Z,5.70
2018-12-21T10:07:27.647Z,5.80
2018-12-21T10:09:56.285Z,5.80
2018-12-21T10:12:24.659Z,5.90
2018-12-21T10:14:52.989Z,5.90
2018-12-21T10:17:21.409Z,6.00
2018-12-21T10:19:49.847Z,6.10
2018-12-21T10:22:18.210Z,6.10
2018-12-21T10:24:46.747Z,6.20
2018-12-21T10:27:15.122Z,6.20
2018-12-21T10:29:43.462Z,6.30
2018-12-21T10:32:11.838Z,6.30
2018-12-21T10:34:40.178Z,6.30
2018-12-21T10:37:08.559Z,6.40
2018-12-21T10:39:36.911Z,6.40
2018-12-21T10:42:05.402Z,6.50
2018-12-21T10:44:33.741Z,6.50
2018-12-21T10:47:02.113Z,6.50
2018-12-21T10:49:32.047Z,6.60
2018-12-21T10:52:00.683Z,6.60
2018-12-21T10:54:29.034Z,6.70
2018-12-21T10:56:57.388Z,6.70
2018-12-21T10:59:25.725Z,6.70
2018-12-21T11:01:54.091Z,6.80
2018-12-21T11:04:22.531Z,6.70
2018-12-21T11:06:50.898Z,6.70
2018-12-21T11:09:19.243Z,6.80
2018-12-21T11:11:47.623Z,6.80
2018-12-21T11:14:16.099Z,6.80
2018-12-21T11:16:44.574Z,6.90
2018-12-21T11:19:12.970Z,6.90
2018-12-21T11:21:41.302Z,6.90
2018-12-21T11:24:09.674Z,6.90
2018-12-21T11:26:38.014Z,6.90
2018-12-21T11:29:06.490Z,6.90
2018-12-21T11:31:34.830Z,7.00
2018-12-21T11:34:03.190Z,7.00
2018-12-21T11:36:31.534Z,6.90
2018-12-21T11:38:59.894Z,6.90
2018-12-21T11:41:28.347Z,6.90
2018-12-21T11:43:56.711Z,6.90
2018-12-21T11:46:25.045Z,6.90
2018-12-21T11:48:53.822Z,6.90
2018-12-21T11:51:22.364Z,6.90
2018-12-21T11:53:50.762Z,6.90
2018-12-21T11:56:19.202Z,7.00
2018-12-21T11:58:47.570Z,7.00
2018-12-21T12:01:15.911Z,7.00
2018-12-21T12:03:44.294Z,7.00
2018-12-21T12:06:12.662Z,7.00
2018-12-21T12:08:41.021Z,6.90
2018-12-21T12:11:09.462Z,6.90
2018-12-21T12:13:37.836Z,6.90
2018-12-21T12:16:06.187Z,7.00
2018-12-21T12:18:34.642Z,7.00
2018-12-21T12:21:02.985Z,7.00
2018-12-21T12:23:31.461Z,7.00
2018-12-21T12:25:59.794Z,7.00
2018-12-21T12:28:28.279Z,7.10
2018-12-21T12:30:58.382Z,7.00
2018-12-21T12:33:26.731Z,7.10
2018-12-21T12:35:55.053Z,7.10
2018-12-21T12:38:23.473Z,7.10
2018-12-21T12:40:51.793Z,7.10
2018-12-21T12:43:23.949Z,7.20
2018-12-21T12:45:52.279Z,7.20
2018-12-21T12:48:20.650Z,7.30
2018-12-21T12:50:48.967Z,7.30
2018-12-21T12:53:17.437Z,7.30
2018-12-21T12:55:45.822Z,7.30
2018-12-21T12:58:14.178Z,7.30
2018-12-21T13:00:42.598Z,7.30
2018-12-21T13:03:10.974Z,7.40
2018-12-21T13:05:39.299Z,7.40
2018-12-21T13:08:07.722Z,7.40
2018-12-21T13:10:36.046Z,7.40
2018-12-21T13:13:04.458Z,7.40
2018-12-21T13:15:32.774Z,7.50
2018-12-21T13:18:01.242Z,7.40
2018-12-21T13:20:29.560Z,7.50
2018-12-21T13:22:57.910Z,7.50
2018-12-21T13:25:26.235Z,7.50
2018-12-21T13:27:54.590Z,7.50
2018-12-21T13:30:23.014Z,7.60
2018-12-21T13:32:51.361Z,7.60
2018-12-21T13:35:19.782Z,7.60
2018-12-21T13:37:48.140Z,7.60
2018-12-21T13:40:17.210Z,7.70
2018-12-21T13:42:45.674Z,7.70
2018-12-21T13:45:14.038Z,7.80
2018-12-21T13:47:42.355Z,7.80
2018-12-21T13:50:13.869Z,7.80
2018-12-21T13:52:42.218Z,7.80
2018-12-21T13:55:10.535Z,7.80
2018-12-21T13:57:38.909Z,7.80
2018-12-21T14:00:09.327Z,7.80
2018-12-21T14:02:37.930Z,7.90
2018-12-21T14:05:07.441Z,7.90
2018-12-21T14:07:35.809Z,7.90
2018-12-21T14:10:06.958Z,7.90
2018-12-21T14:12:35.306Z,7.90
2018-12-21T14:15:03.950Z,7.90
2018-12-21T14:17:32.305Z,7.90
2018-12-21T14:20:00.623Z,8.00
2018-12-21T14:22:28.983Z,8.00
2018-12-21T14:24:57.335Z,8.00
2018-12-21T14:27:25.689Z,8.10
2018-12-21T14:29:54.022Z,8.10
2018-12-21T14:32:22.376Z,8.10
2018-12-21T14:34:50.703Z,8.10
2018-12-21T14:37:19.046Z,8.10
2018-12-21T14:39:47.366Z,8.10
2018-12-21T14:42:15.719Z,8.10
2018-12-21T14:44:44.028Z,8.10
2018-12-21T14:47:12.387Z,8.10
2018-12-21T14:49:40.702Z,8.10
2018-12-21T14:52:09.078Z,8.10
2018-12-21T14:54:37.398Z,8.20
2018-12-21T14:57:05.777Z,8.20
2018-12-21T14:59:34.100Z,8.20
2018-12-21T15:02:02.466Z,8.20
2018-12-21T15:04:30.778Z,8.20
2018-12-21T15:06:59.146Z,8.20
2018-12-21T15:09:27.520Z,8.20
2018-12-21T15:11:55.886Z,8.20
2018-12-21T15:14:24.214Z,8.20
2018-12-21T15:16:52.586Z,8.20
2018-12-21T15:19:21.006Z,8.20
2018-12-21T15:21:49.466Z,8.20
2018-12-21T15:24:17.815Z,8.30
2018-12-21T15:26:46.176Z,8.30
2018-12-21T15:29:14.499Z,8.30
2018-12-21T15:31:42.866Z,8.30
2018-12-21T15:34:11.186Z,8.30
2018-12-21T15:36:39.522Z,8.30
2018-12-21T15:39:07.937Z,8.40
2018-12-21T15:41:36.327Z,8.40
2018-12-21T15:44:06.619Z,8.40
2018-12-21T15:46:35.025Z,8.40
2018-12-21T15:49:03.563Z,8.40
2018-12-21T15:51:31.909Z,8.40
2018-12-21T15:54:00.244Z,8.40
2018-12-21T15:56:28.599Z,8.40
2018-12-21T15:58:56.911Z,8.40
2018-12-21T16:01:25.266Z,8.50
2018-12-21T16:03:53.580Z,8.50
2018-12-21T16:06:21.946Z,8.50
2018-12-21T16:08:50.275Z,8.50
2018-12-21T16:11:18.706Z,8.50
2018-12-21T16:13:47.110Z,8.50
2018-12-21T16:16:15.434Z,8.60
2018-12-21T16:18:43.795Z,8.60
2018-12-21T16:21:12.115Z,8.60
2018-12-21T16:23:40.470Z,8.60
2018-12-21T16:26:08.790Z,8.80
2018-12-21T16:28:37.141Z,8.80
2018-12-21T16:31:05.454Z,8.80
2018-12-21T16:33:33.798Z,8.80
2018-12-21T16:36:02.170Z,8.90
2018-12-21T16:38:30.583Z,8.90
2018-12-21T16:40:58.905Z,9.00
2018-12-21T16:43:27.253Z,8.90
2018-12-21T16:45:55.574Z,8.90
2018-12-21T16:48:23.927Z,8.90
2018-12-21T16:50:52.239Z,8.90
2018-12-21T16:53:20.581Z,8.90
2018-12-21T16:55:49.035Z,8.90
2018-12-21T16:58:17.382Z,8.90
2018-12-21T17:00:45.706Z,8.90
2018-12-21T17:03:15.750Z,8.90
2018-12-21T17:05:44.426Z,8.90
2018-12-21T17:08:12.774Z,8.90
2018-12-21T17:10:41.090Z,9.00
2018-12-21T17:13:09.439Z,9.00
2018-12-21T17:15:37.754Z,9.00
2018-12-21T17:18:06.934Z,9.10
2018-12-21T17:20:35.254Z,9.10
2018-12-21T17:23:03.599Z,9.10
2018-12-21T17:25:32.766Z,9.10
2018-12-21T17:28:01.117Z,9.10
2018-12-21T17:30:29.551Z,9.10
2018-12-21T17:32:57.905Z,9.10
2018-12-21T17:35:26.246Z,9.10
2018-12-21T17:37:54.609Z,9.10
2018-12-21T17:40:23.034Z,9.10
2018-12-21T17:42:51.386Z,9.10
2018-12-21T17:45:19.714Z,9.20
2018-12-21T17:47:48.143Z,9.10
2018-12-21T17:50:16.463Z,9.10
2018-12-21T17:52:44.813Z,9.10
2018-12-21T17:55:13.230Z,9.10
2018-12-21T17:57:41.539Z,9.10
2018-12-21T18:00:15.483Z,9.20
2018-12-21T18:02:45.538Z,9.20
2018-12-21T18:05:13.894Z,9.20
2018-12-21T18:07:42.248Z,9.20
2018-12-21T18:10:11.637Z,9.20
2018-12-21T18:12:39.946Z,9.30
2018-12-21T18:15:09.314Z,9.30
2018-12-21T18:17:37.645Z,9.30
2018-12-21T18:20:09.459Z,9.30
2018-12-21T18:22:37.786Z,9.30
2018-12-21T18:25:11.874Z,9.30
2018-12-21T18:27:40.195Z,9.30
2018-12-21T18:30:15.845Z,9.30
2018-12-21T18:32:44.386Z,9.30
2018-12-21T18:35:16.219Z,9.30
2018-12-21T18:37:55.742Z,9.30
2018-12-21T18:40:24.118Z,9.40
2018-12-21T18:42:52.437Z,9.40
2018-12-21T18:45:20.814Z,9.40
2018-12-21T18:47:49.173Z,9.40
2018-12-21T18:50:17.642Z,9.40
2018-12-21T18:52:45.962Z,9.40
2018-12-21T18:55:15.857Z,9.30
2018-12-21T18:57:44.354Z,9.40
2018-12-21T19:00:15.491Z,9.40
2018-12-21T19:02:43.934Z,9.30
2018-12-21T19:05:12.307Z,9.40
2018-12-21T19:07:40.798Z,9.40
2018-12-21T19:10:10.377Z,9.40
2018-12-21T19:12:38.690Z,9.50
2018-12-21T19:15:09.465Z,9.40
2018-12-21T19:17:37.894Z,9.40
2018-12-21T19:20:09.048Z,9.40
2018-12-21T19:22:37.453Z,9.40
2018-12-21T19:25:06.590Z,9.30
2018-12-21T19:27:34.915Z,9.30
2018-12-21T19:30:03.527Z,9.30
2018-12-21T19:32:31.837Z,9.30
2018-12-21T19:35:01.112Z,9.30
2018-12-21T19:37:29.584Z,9.30
2018-12-21T19:39:59.546Z,9.30
2018-12-21T19:42:28.165Z,9.30
2018-12-21T19:44:56.553Z,9.20
2018-12-21T19:47:24.870Z,9.20
2018-12-21T19:49:53.219Z,9.20
2018-12-21T19:52:21.538Z,9.20
2018-12-21T19:54:54.411Z,9.20
2018-12-21T19:57:22.735Z,9.20
2018-12-21T19:59:51.098Z,9.10
2018-12-21T20:02:19.429Z,9.20
2018-12-21T20:04:47.798Z,9.20
2018-12-21T20:07:16.161Z,9.20
2018-12-21T20:09:44.518Z,9.20
2018-12-21T20:12:12.830Z,9.20
2018-12-21T20:14:41.378Z,9.20
2018-12-21T20:17:09.703Z,9.20
2018-12-21T20:19:38.058Z,9.20
2018-12-21T20:22:06.415Z,9.20
2018-12-21T20:24:37.091Z,9.20
2018-12-21T20:27:13.817Z,9.20
2018-12-21T20:29:40.024Z,9.20
2018-12-21T20:32:08.346Z,9.30
2018-12-21T20:34:36.719Z,9.30
2018-12-21T20:37:05.162Z,9.30
2018-12-21T20:39:34.538Z,9.30
2018-12-21T20:42:02.878Z,9.30
2018-12-21T20:44:31.203Z,9.30
2018-12-21T20:47:01.844Z,9.30
2018-12-21T20:49:30.187Z,9.30
2018-12-21T20:51:58.677Z,9.30
2018-12-21T20:54:27.030Z,9.30
2018-12-21T20:56:58.432Z,9.30
2018-12-21T20:59:27.214Z,9.30
2018-12-21T21:01:55.606Z,9.30
2018-12-21T21:04:23.939Z,9.30
2018-12-21T21:06:52.399Z,9.30
2018-12-21T21:09:20.794Z,9.30
2018-12-21T21:11:49.160Z,9.30
2018-12-21T21:14:18.786Z,9.30
2018-12-21T21:16:47.166Z,9.20
2018-12-21T21:19:15.495Z,9.20
2018-12-21T21:21:43.958Z,9.20
2018-12-21T21:24:12.303Z,9.20
2018-12-21T21:26:40.678Z,9.10
2018-12-21T21:29:09.017Z,9.10
2018-12-21T21:31:39.962Z,9.10
2018-12-21T21:34:08.298Z,9.10
2018-12-21T21:36:36.686Z,9.00
2018-12-21T21:39:06.915Z,9.00
2018-12-21T21:41:35.353Z,9.00
2018-12-21T21:44:03.747Z,9.00
2018-12-21T21:46:32.165Z,9.00
2018-12-21T21:49:00.481Z,9.00
2018-12-21T21:51:28.832Z,9.00
2018-12-21T21:53:57.146Z,9.00
2018-12-21T21:56:25.620Z,9.00
2018-12-21T21:58:53.938Z,8.90
2018-12-21T22:01:22.292Z,8.90
2018-12-21T22:03:50.628Z,8.90
2018-12-21T22:06:19.094Z,8.90
2018-12-21T22:08:47.411Z,8.90
2018-12-21T22:11:15.766Z,8.90
2018-12-21T22:13:44.098Z,8.90
2018-12-21T22:16:12.470Z,8.90
2018-12-21T22:18:40.794Z,8.90
2018-12-21T22:21:09.143Z,8.90
2018-12-21T22:23:37.464Z,8.90
2018-12-21T22:26:06.030Z,8.90
2018-12-21T22:28:34.346Z,8.90
2018-12-21T22:31:02.702Z,8.80
2018-12-21T22:33:31.038Z,8.90
2018-12-21T22:35:59.390Z,8.80
2018-12-21T22:38:27.717Z,8.80
2018-12-21T22:40:56.070Z,8.80
2018-12-21T22:43:24.394Z,8.80
2018-12-21T22:45:52.786Z,8.80
2018-12-21T22:48:21.102Z,8.80
2018-12-21T22:50:49.466Z,8.70
2018-12-21T22:53:17.782Z,8.70
2018-12-21T22:55:46.146Z,8.70
2018-12-21T22:58:14.461Z,8.70
2018-12-21T23:00:43.326Z,8.80
2018-12-21T23:03:11.648Z,8.70
2018-12-21T23:05:39.998Z,8.80
2018-12-21T23:08:08.322Z,8.70
2018-12-21T23:10:36.666Z,8.80
2018-12-21T23:13:04.982Z,8.80
2018-12-21T23:15:33.330Z,8.70
2018-12-21T23:18:01.650Z,8.80
2018-12-21T23:20:30.062Z,8.70
2018-12-21T23:22:58.450Z,8.70
2018-12-21T23:25:26.921Z,8.70
2018-12-21T23:27:55.280Z,8.70
2018-12-21T23:30:23.606Z,8.70
2018-12-21T23:32:51.965Z,8.70
2018-12-21T23:35:20.294Z,8.70
2018-12-21T23:37:48.641Z,8.70
2018-12-21T23:40:16.959Z,8.70
2018-12-21T23:42:45.302Z,8.70
2018-12-21T23:45:13.754Z,8.70
2018-12-21T23:47:42.102Z,8.70
2018-12-21T23:50:10.421Z,8.70
2018-12-21T23:52:38.809Z,8.70
2018-12-21T23:55:07.167Z,8.70
2018-12-21T23:57:35.530Z,8.70
